Time;durP1;ratioP1;P1;durP2;ratioP2;P2;SDS_P1;SDS_P2;PMS_P1;PMS_P2;Temp;Humidity;BMP_temperature;BMP_pressure;BME280_temperature;BME280_humidity;BME280_pressure;Samples;Min_cycle;Max_cycle;Signal;HPM_P1;HPM_P2
2022/12/06 00:01:04;;;;;;;18.13;9.48;;;;;;;5.14;83.99;101286.69;5048965;28;20040;-69
2022/12/06 00:03:31;;;;;;;19.02;10.05;;;;;;;5.16;84.46;101289.28;5051465;28;20062;-69
2022/12/06 00:06:00;;;;;;;16.90;9.70;;;;;;;5.14;84.18;101285.84;5069106;28;20044;-69
2022/12/06 00:08:28;;;;;;;18.25;10.70;;;;;;;4.74;85.19;101286.63;5053826;27;20044;-69
2022/12/06 00:10:55;;;;;;;20.30;10.52;;;;;;;5.08;84.18;101283.38;5061799;28;20048;-70
2022/12/06 00:13:22;;;;;;;17.60;9.65;;;;;;;5.10;84.12;101279.00;5065648;28;20053;-69
2022/12/06 00:15:48;;;;;;;21.95;10.90;;;;;;;5.28;82.83;101281.22;5044460;28;20040;-69
2022/12/06 00:18:15;;;;;;;19.45;9.70;;;;;;;5.36;82.53;101280.16;5050575;28;20048;-70
2022/12/06 00:20:41;;;;;;;19.65;10.45;;;;;;;5.46;81.89;101269.56;5052298;28;20043;-70
2022/12/06 00:23:08;;;;;;;16.17;9.75;;;;;;;5.44;81.72;101271.31;5052750;28;20044;-69
2022/12/06 00:25:36;;;;;;;17.92;10.52;;;;;;;5.25;82.38;101276.94;5043939;27;20052;-69
2022/12/06 00:28:03;;;;;;;21.38;9.90;;;;;;;5.32;82.16;101272.47;5032743;28;20063;-69
2022/12/06 00:30:30;;;;;;;17.52;9.88;;;;;;;5.32;82.50;101275.06;5031887;28;20049;-70
2022/12/06 00:32:56;;;;;;;17.58;10.05;;;;;;;5.23;83.05;101281.31;5064093;28;20424;-70
2022/12/06 00:35:23;;;;;;;18.52;9.75;;;;;;;5.22;82.71;101283.94;5095384;27;20044;-69
2022/12/06 00:37:49;;;;;;;17.73;9.25;;;;;;;5.26;82.78;101283.00;5068689;28;20039;-69
2022/12/06 00:40:16;;;;;;;19.52;10.38;;;;;;;5.17;83.49;101280.59;5050439;28;20044;-70
2022/12/06 00:42:44;;;;;;;18.13;10.20;;;;;;;5.37;82.54;101274.06;5051930;28;20040;-69
2022/12/06 00:45:11;;;;;;;17.08;9.40;;;;;;;5.39;82.47;101272.28;5051963;28;20063;-69
2022/12/06 00:47:37;;;;;;;18.63;10.30;;;;;;;5.27;82.26;101272.56;5047207;28;20044;-70
2022/12/06 00:50:05;;;;;;;22.35;10.57;;;;;;;5.20;82.60;101277.94;5051717;27;20044;-70
2022/12/06 00:52:32;;;;;;;19.00;10.75;;;;;;;5.35;82.93;101275.00;5051710;28;20044;-70
2022/12/06 00:54:58;;;;;;;17.05;9.40;;;;;;;5.43;82.23;101270.50;5047310;28;20040;-70
2022/12/06 00:57:25;;;;;;;19.25;9.85;;;;;;;5.52;81.70;101269.41;5051551;28;20049;-69
2022/12/06 00:59:53;;;;;;;18.67;10.05;;;;;;;5.47;81.36;101261.69;5051655;28;20067;-70
2022/12/06 01:02:19;;;;;;;18.73;10.30;;;;;;;5.60;81.39;101257.94;5046484;28;20066;-69
2022/12/06 01:04:46;;;;;;;16.50;10.68;;;;;;;5.65;80.51;101265.66;5062504;28;20040;-69
2022/12/06 01:07:12;;;;;;;20.80;9.95;;;;;;;5.38;81.31;101272.34;5068248;28;20040;-69
2022/12/06 01:09:39;;;;;;;16.42;9.52;;;;;;;5.37;81.12;101262.81;5060744;28;20048;-69
2022/12/06 01:12:06;;;;;;;18.75;10.25;;;;;;;5.44;81.28;101258.31;5036546;28;20055;-69
2022/12/06 01:14:32;;;;;;;15.90;10.15;;;;;;;5.60;80.60;101255.34;5044353;28;20094;-69
2022/12/06 01:17:00;;;;;;;19.88;10.85;;;;;;;5.28;81.61;101265.63;5042058;28;20059;-70
2022/12/06 01:19:27;;;;;;;18.23;10.70;;;;;;;5.36;81.73;101255.88;5051219;28;20049;-70
2022/12/06 01:21:53;;;;;;;19.20;9.55;;;;;;;5.44;81.53;101253.13;5051327;28;20044;-69
2022/12/06 01:24:19;;;;;;;19.65;10.00;;;;;;;5.31;81.98;101249.94;5040510;28;20535;-69
2022/12/06 01:26:46;;;;;;;18.63;9.77;;;;;;;5.43;81.30;101244.50;5048860;28;20052;-69
2022/12/06 01:29:12;;;;;;;18.75;10.02;;;;;;;5.54;80.91;101244.25;5050561;28;20052;-70
2022/12/06 01:31:39;;;;;;;19.15;10.00;;;;;;;5.56;80.65;101232.91;5040148;28;20045;-70
2022/12/06 01:34:14;;;;;;;17.25;9.77;;;;;;;5.52;80.65;101233.84;5050927;28;20040;-70
2022/12/06 01:36:41;;;;;;;16.25;10.13;;;;;;;5.40;81.42;101241.94;5040162;28;20511;-70
2022/12/06 01:39:09;;;;;;;16.58;9.95;;;;;;;5.38;81.12;101235.91;5058302;28;20109;-70
2022/12/06 01:41:37;;;;;;;17.98;10.00;;;;;;;5.45;81.29;101239.22;5073671;28;20043;-70
2022/12/06 01:44:04;;;;;;;15.55;8.65;;;;;;;5.50;80.55;101238.25;5051872;28;20048;-70
2022/12/06 01:46:34;;;;;;;18.65;9.48;;;;;;;5.55;80.33;101236.38;5072334;28;20538;-70
2022/12/06 01:49:17;;;;;;;18.75;10.00;;;;;;;5.59;79.95;101240.63;5038155;28;20070;-70
2022/12/06 01:51:47;;;;;;;18.00;9.20;;;;;;;5.45;80.85;101242.69;5040147;28;20059;-70
2022/12/06 01:54:17;;;;;;;18.48;10.07;;;;;;;5.11;81.94;101244.31;5050040;28;20048;-70
2022/12/06 01:56:44;;;;;;;18.55;9.68;;;;;;;4.82;84.30;101244.91;5038804;28;20566;-70
2022/12/06 01:59:11;;;;;;;19.40;10.18;;;;;;;4.96;83.51;101245.50;5058371;28;20416;-70
2022/12/06 02:01:39;;;;;;;16.95;9.55;;;;;;;5.04;82.91;101242.72;5050817;28;20044;-69
2022/12/06 02:04:07;;;;;;;18.77;10.60;;;;;;;5.16;82.66;101245.09;5072619;28;20462;-69
2022/12/06 02:06:35;;;;;;;16.10;9.13;;;;;;;5.12;82.70;101236.50;5050538;28;20051;-70
2022/12/06 02:09:06;;;;;;;19.48;9.40;;;;;;;5.27;82.01;101224.91;5052655;28;20420;-70
2022/12/06 02:11:32;;;;;;;18.30;8.95;;;;;;;5.13;82.43;101234.75;5045606;28;20051;-70
2022/12/06 02:13:59;;;;;;;20.92;10.80;;;;;;;5.18;82.23;101232.88;5049591;28;20541;-69
2022/12/06 02:16:43;;;;;;;21.67;10.63;;;;;;;5.25;82.40;101237.06;5081167;27;20042;-70
2022/12/06 02:19:28;;;;;;;19.83;9.80;;;;;;;5.04;82.60;101224.53;5050191;28;20068;-69
2022/12/06 02:22:06;;;;;;;19.15;10.07;;;;;;;5.00;83.26;101225.50;5040481;28;20051;-69
2022/12/06 02:24:47;;;;;;;18.92;10.48;;;;;;;5.01;82.92;101220.28;5050158;28;20055;-69
2022/12/06 02:27:33;;;;;;;20.40;10.07;;;;;;;5.27;82.38;101215.38;5039577;28;20063;-69
2022/12/06 02:30:11;;;;;;;18.88;10.00;;;;;;;5.26;82.02;101218.84;5042929;28;20542;-69
2022/12/06 02:32:47;;;;;;;20.08;10.95;;;;;;;5.24;81.82;101214.56;5039952;28;20052;-69
2022/12/06 02:35:22;;;;;;;20.52;10.25;;;;;;;5.24;81.71;101210.25;5049352;28;20068;-69
2022/12/06 02:37:54;;;;;;;18.30;9.68;;;;;;;5.38;81.42;101194.31;5039407;28;20044;-69
2022/12/06 02:40:25;;;;;;;21.52;11.00;;;;;;;5.19;81.84;101206.88;5049069;28;20040;-69
2022/12/06 02:42:56;;;;;;;18.63;10.18;;;;;;;5.10;82.20;101201.03;5039292;28;20049;-69
2022/12/06 02:45:28;;;;;;;18.80;11.30;;;;;;;4.97;83.56;101199.56;5048180;28;20052;-69
2022/12/06 02:48:01;;;;;;;17.10;9.57;;;;;;;5.16;82.48;101193.09;5048777;28;20056;-69
2022/12/06 02:50:30;;;;;;;;;;;;;;;4.96;83.01;101208.25;5038349;28;20044;-69
2022/12/06 02:53:01;;;;;;;21.30;10.55;;;;;;;4.96;83.67;101211.72;5048890;28;19920;-69
2022/12/06 02:55:29;;;;;;;19.00;9.98;;;;;;;5.20;82.71;101197.34;5039210;28;20044;-70
2022/12/06 02:57:56;;;;;;;21.80;10.88;;;;;;;4.94;83.61;101208.31;5049505;28;20492;-70
2022/12/06 03:00:36;;;;;;;24.23;11.00;;;;;;;5.07;83.44;101207.13;5047955;28;20485;-70
2022/12/06 03:03:23;;;;;;;18.70;9.98;;;;;;;5.00;83.71;101207.28;5039461;28;20496;-70
2022/12/06 03:06:16;;;;;;;18.40;9.80;;;;;;;4.92;83.61;101197.06;5049438;28;20036;-69
2022/12/06 03:08:54;;;;;;;20.80;11.00;;;;;;;5.09;83.20;101196.72;5049000;28;20044;-69
2022/12/06 03:11:21;;;;;;;19.65;10.05;;;;;;;5.23;82.89;101202.47;5039149;28;20140;-70
2022/12/06 03:13:54;;;;;;;19.55;10.18;;;;;;;5.19;82.72;101196.47;5048508;28;20432;-70
2022/12/06 03:16:27;;;;;;;24.77;10.80;;;;;;;5.27;82.60;101188.50;5048599;28;20090;-69
2022/12/06 03:18:59;;;;;;;20.05;9.98;;;;;;;5.15;83.07;101187.03;5041029;28;20056;-70
2022/12/06 03:21:31;;;;;;;25.33;11.25;;;;;;;5.39;82.73;101183.84;5048086;28;20044;-69
2022/12/06 03:23:59;;;;;;;21.85;10.45;;;;;;;5.37;82.24;101182.19;5038974;28;20053;-69
2022/12/06 03:26:30;;;;;;;23.13;11.27;;;;;;;5.38;82.11;101176.13;5048635;28;20067;-70
2022/12/06 03:29:00;;;;;;;20.47;10.60;;;;;;;5.28;82.59;101165.06;5048813;28;20595;-70
2022/12/06 03:31:31;;;;;;;25.60;11.55;;;;;;;5.01;83.95;101162.25;5039018;28;20032;-69
2022/12/06 03:34:03;;;;;;;23.58;10.50;;;;;;;5.08;83.72;101171.59;5048367;28;20056;-69
2022/12/06 03:36:32;;;;;;;23.95;10.55;;;;;;;4.88;83.87;101170.28;5040452;28;20040;-69
2022/12/06 03:39:02;;;;;;;23.67;11.20;;;;;;;4.97;84.12;101169.25;5078270;28;20064;-69
2022/12/06 03:41:32;;;;;;;29.50;13.10;;;;;;;5.24;83.50;101158.25;5055373;28;20060;-69
2022/12/06 03:43:59;;;;;;;22.83;10.45;;;;;;;5.33;82.85;101162.34;5046186;28;20504;-69
2022/12/06 03:46:31;;;;;;;28.15;10.75;;;;;;;5.26;82.84;101159.06;5048023;28;20053;-69
2022/12/06 03:49:02;;;;;;;24.95;10.82;;;;;;;5.20;83.40;101163.53;5063634;28;20508;-69
2022/12/06 03:51:31;;;;;;;26.17;11.35;;;;;;;5.20;83.04;101160.94;5048829;28;20124;-69
2022/12/06 03:54:00;;;;;;;25.50;11.65;;;;;;;4.99;83.73;101164.03;5053605;28;20119;-69
2022/12/06 03:56:26;;;;;;;26.95;11.60;;;;;;;5.07;83.95;101155.16;5044874;28;20045;-69
2022/12/06 03:58:53;;;;;;;24.02;10.63;;;;;;;5.02;83.76;101157.03;5054848;28;20412;-69
2022/12/06 04:01:20;;;;;;;22.98;10.23;;;;;;;4.74;84.91;101150.69;5054668;28;20052;-70
2022/12/06 04:03:46;;;;;;;22.33;10.15;;;;;;;4.84;85.23;101153.06;5045493;28;20055;-70
2022/12/06 04:06:14;;;;;;;25.55;10.57;;;;;;;4.78;85.31;101147.16;5069619;28;20041;-70
2022/12/06 04:08:41;;;;;;;29.60;11.38;;;;;;;4.85;85.27;101153.91;5054126;28;20048;-69
2022/12/06 04:11:07;;;;;;;22.45;10.55;;;;;;;4.91;84.65;101152.03;5045020;28;20393;-69
2022/12/06 04:13:35;;;;;;;24.52;10.85;;;;;;;4.80;84.88;101146.22;5054838;28;20649;-69
2022/12/06 04:16:02;;;;;;;27.10;11.23;;;;;;;4.89;84.43;101150.38;5055334;28;20070;-70
2022/12/06 04:18:27;;;;;;;24.10;11.10;;;;;;;4.95;84.02;101154.59;5045701;28;20503;-70
2022/12/06 04:23:45;;;;;;;23.92;10.68;;;;;;;5.12;83.56;101152.47;5046016;28;20047;-69
2022/12/06 04:26:14;;;;;;;20.58;10.15;;;;;;;4.99;83.93;101151.88;5055358;28;20047;-69
2022/12/06 04:39:39;;;;;;;20.20;10.98;;;;;;;5.39;81.78;101141.44;5035528;28;20514;-69
2022/12/06 04:44:51;;;;;;;22.17;11.23;;;;;;;5.49;81.88;101137.69;5022977;28;20052;-70
2022/12/06 04:47:18;;;;;;;24.92;10.48;;;;;;;5.39;81.54;101134.44;5034570;28;20044;-70
2022/12/06 04:49:44;;;;;;;25.05;11.20;;;;;;;5.02;82.97;101124.97;5034832;28;20052;-69
2022/12/06 04:52:11;;;;;;;20.48;10.48;;;;;;;5.23;82.06;101127.06;5024651;28;20049;-69
2022/12/06 04:54:40;;;;;;;19.20;9.88;;;;;;;5.28;82.02;101123.44;5046206;28;20045;-69
2022/12/06 04:57:09;;;;;;;20.00;9.40;;;;;;;5.22;82.31;101117.56;5051379;28;20124;-69
2022/12/06 04:59:36;;;;;;;20.80;10.00;;;;;;;5.33;81.68;101119.00;5034118;28;20064;-69
2022/12/06 05:02:03;;;;;;;23.92;10.25;;;;;;;5.06;82.46;101116.22;5064901;27;20039;-69
2022/12/06 05:04:29;;;;;;;19.63;9.60;;;;;;;5.30;81.74;101121.69;5077564;27;20051;-68
2022/12/06 05:06:56;;;;;;;19.90;9.82;;;;;;;5.19;81.80;101109.84;5040612;28;20048;-69
2022/12/06 05:09:23;;;;;;;19.75;9.15;;;;;;;5.04;82.67;101112.78;5042927;28;20499;-69
2022/12/06 05:11:50;;;;;;;20.95;10.52;;;;;;;5.08;82.69;101115.28;5034102;28;20056;-68
2022/12/06 05:14:17;;;;;;;18.20;8.57;;;;;;;4.93;82.60;101114.78;5022834;28;20057;-68
2022/12/06 05:16:43;;;;;;;20.67;9.18;;;;;;;4.97;83.82;101106.03;5030208;28;20266;-68
2022/12/06 05:19:11;;;;;;;22.27;9.73;;;;;;;4.96;83.25;101109.50;5032214;28;20045;-68
2022/12/06 05:21:38;;;;;;;18.80;9.52;;;;;;;5.02;82.79;101114.56;5022768;28;20577;-68
2022/12/06 05:24:05;;;;;;;16.20;9.23;;;;;;;5.07;82.45;101112.72;5031985;28;20049;-68
2022/12/06 05:26:31;;;;;;;17.40;8.25;;;;;;;5.17;82.39;101103.81;5032015;28;20049;-68
2022/12/06 05:28:59;;;;;;;18.95;9.40;;;;;;;5.08;82.29;101104.03;5029483;28;20413;-68
2022/12/06 05:31:27;;;;;;;19.23;9.30;;;;;;;4.79;82.97;101096.91;5047986;28;20044;-68
2022/12/06 05:33:54;;;;;;;21.10;9.25;;;;;;;4.80;83.93;101099.44;5051400;28;20492;-68
2022/12/06 05:36:22;;;;;;;20.10;9.20;;;;;;;4.97;83.10;101103.41;5041696;28;20051;-69
2022/12/06 05:38:50;;;;;;;18.08;9.13;;;;;;;4.77;83.28;101104.72;5042230;28;20045;-69
2022/12/06 05:41:17;;;;;;;17.23;9.27;;;;;;;4.86;83.52;101090.69;5064165;27;20039;-69
2022/12/06 05:43:44;;;;;;;15.77;8.55;;;;;;;4.85;83.76;101095.00;5060365;27;20051;-68
2022/12/06 05:46:11;;;;;;;16.73;8.82;;;;;;;4.95;83.09;101097.41;5049190;28;20048;-68
2022/12/06 05:48:38;;;;;;;15.90;8.40;;;;;;;4.66;83.75;101093.72;5051485;28;20041;-68
2022/12/06 05:51:05;;;;;;;16.42;9.07;;;;;;;4.78;84.30;101096.03;5040993;28;20082;-68
2022/12/06 05:53:31;;;;;;;16.08;9.25;;;;;;;4.93;83.58;101084.44;5050160;28;20045;-68
2022/12/06 05:56:04;;;;;;;15.35;9.38;;;;;;;5.02;82.30;101078.19;5051015;28;20053;-68
2022/12/06 05:58:31;;;;;;;13.85;8.27;;;;;;;4.70;83.63;101071.13;5053843;28;20118;-69
2022/12/06 06:00:57;;;;;;;20.75;9.68;;;;;;;4.78;83.53;101072.66;5056681;28;20048;-69
2022/12/06 06:03:25;;;;;;;15.73;8.18;;;;;;;4.77;83.75;101078.75;5049544;28;20063;-69
2022/12/06 06:05:57;;;;;;;17.52;9.52;;;;;;;4.80;83.24;101077.84;5050634;28;20056;-69
2022/12/06 06:08:23;;;;;;;18.35;9.63;;;;;;;4.79;83.77;101079.59;5057914;28;20067;-69
2022/12/06 06:10:49;;;;;;;21.40;9.77;;;;;;;4.93;83.44;101081.00;5051620;28;20515;-69
2022/12/06 06:13:16;;;;;;;18.35;9.48;;;;;;;4.68;83.43;101073.78;5070210;28;20480;-69
2022/12/06 06:15:42;;;;;;;16.02;9.10;;;;;;;4.99;83.36;101079.09;5059425;28;20044;-68
2022/12/06 06:18:09;;;;;;;18.38;9.52;;;;;;;5.03;82.60;101074.69;5040770;28;20045;-68
2022/12/06 06:20:37;;;;;;;14.93;9.23;;;;;;;4.98;83.30;101072.22;5050286;28;20044;-68
2022/12/06 06:23:04;;;;;;;19.85;9.75;;;;;;;4.97;83.04;101086.09;5050150;28;20049;-69
2022/12/06 06:25:30;;;;;;;19.48;10.27;;;;;;;5.23;81.47;101085.47;5040673;28;20051;-69
2022/12/06 06:27:57;;;;;;;19.50;9.50;;;;;;;4.82;83.09;101078.66;5054877;28;20269;-68
2022/12/06 06:30:23;;;;;;;19.58;9.25;;;;;;;4.85;83.33;101084.63;5060534;28;20044;-68
2022/12/06 06:32:50;;;;;;;21.42;9.68;;;;;;;5.01;82.63;101076.47;5050055;28;20044;-69
2022/12/06 06:35:17;;;;;;;17.50;9.43;;;;;;;5.25;81.94;101070.69;5050322;28;20080;-69
2022/12/06 06:37:44;;;;;;;20.63;10.10;;;;;;;4.98;82.94;101074.81;5063068;27;20050;-69
2022/12/06 06:40:11;;;;;;;20.50;9.57;;;;;;;5.05;82.74;101068.59;5070371;27;20044;-69
2022/12/06 06:42:38;;;;;;;17.40;9.85;;;;;;;5.09;82.13;101075.41;5047523;28;20060;-69
2022/12/06 06:45:05;;;;;;;18.85;9.15;;;;;;;4.98;82.30;101077.41;5048966;28;20500;-66
2022/12/06 06:47:32;;;;;;;20.70;10.57;;;;;;;5.06;82.06;101075.50;5042172;28;20048;-66
2022/12/06 06:49:58;;;;;;;20.30;10.27;;;;;;;5.15;81.65;101077.00;5049683;28;20048;-66
2022/12/06 06:52:25;;;;;;;19.55;10.02;;;;;;;5.05;82.52;101072.91;5044545;28;20069;-66
2022/12/06 06:54:52;;;;;;;20.95;9.60;;;;;;;5.21;82.01;101082.91;5048945;28;20040;-66
2022/12/06 06:57:20;;;;;;;19.38;10.32;;;;;;;5.26;81.43;101081.06;5036896;28;20057;-66
2022/12/06 06:59:46;;;;;;;19.17;9.32;;;;;;;5.08;81.79;101081.50;5040342;28;20407;-66
2022/12/06 07:02:13;;;;;;;18.02;9.45;;;;;;;5.26;81.59;101083.66;5047432;28;20137;-66
2022/12/06 07:04:40;;;;;;;20.02;9.77;;;;;;;5.24;81.29;101080.25;5031582;28;20046;-66
2022/12/06 07:07:06;;;;;;;18.92;9.02;;;;;;;5.26;80.86;101086.25;5026326;28;20049;-66
2022/12/06 07:09:33;;;;;;;16.80;9.43;;;;;;;4.71;83.15;101086.69;5030141;28;20045;-67
2022/12/06 07:12:01;;;;;;;18.80;9.93;;;;;;;4.91;83.07;101089.66;5043541;28;20052;-66
2022/12/06 07:14:27;;;;;;;16.27;8.93;;;;;;;5.11;82.27;101089.22;5049202;28;20044;-66
2022/12/06 07:16:53;;;;;;;15.07;8.70;;;;;;;5.20;81.63;101082.94;5033630;28;20053;-66
2022/12/06 07:19:20;;;;;;;22.85;10.38;;;;;;;5.23;81.28;101091.53;5024380;28;20056;-66
2022/12/06 07:21:46;;;;;;;17.65;9.23;;;;;;;5.35;81.46;101086.03;5028886;28;20045;-66
2022/12/06 07:24:13;;;;;;;17.92;9.60;;;;;;;5.44;80.51;101092.72;5029843;28;20041;-66
2022/12/06 07:26:39;;;;;;;19.42;9.02;;;;;;;5.40;80.72;101101.50;5019754;28;20068;-66
2022/12/06 07:29:07;;;;;;;17.55;8.63;;;;;;;5.31;81.11;101100.00;5035602;28;20698;-66
2022/12/06 07:31:34;;;;;;;21.08;9.80;;;;;;;5.34;80.93;101099.91;5047410;28;20061;-66
2022/12/06 07:34:02;;;;;;;21.42;9.68;;;;;;;5.22;81.30;101104.56;5039514;28;20040;-66
2022/12/06 07:36:30;;;;;;;17.00;8.27;;;;;;;5.00;82.08;101104.19;5048725;28;20078;-66
2022/12/06 07:38:59;;;;;;;18.02;9.18;;;;;;;4.84;83.07;101105.47;5039720;28;20040;-66
2022/12/06 07:47:03;;;;;;;15.38;8.27;;;;;;;4.74;83.61;101116.91;5051310;27;20050;-66
2022/12/06 07:49:29;;;;;;;16.15;8.25;;;;;;;4.89;83.16;101104.44;5041355;28;20392;-66
2022/12/06 07:51:56;;;;;;;13.18;7.63;;;;;;;5.02;82.08;101099.84;5046952;28;20078;-66
2022/12/06 07:54:23;;;;;;;16.08;8.32;;;;;;;4.92;82.42;101098.31;5047190;28;20052;-66
2022/12/06 07:56:49;;;;;;;11.82;7.45;;;;;;;5.11;81.89;101094.41;5045663;28;20044;-66
2022/12/06 07:59:17;;;;;;;11.82;7.07;;;;;;;5.23;82.49;101098.47;5051565;28;20171;-66
2022/12/06 08:01:44;;;;;;;14.73;8.05;;;;;;;5.14;82.23;101099.53;5059062;28;20048;-66
2022/12/06 08:04:10;;;;;;;13.52;7.47;;;;;;;5.20;81.86;101094.22;5048615;28;20044;-66
2022/12/06 08:06:37;;;;;;;13.30;7.43;;;;;;;5.39;81.38;101092.00;5053189;28;20053;-66
2022/12/06 08:09:04;;;;;;;19.67;8.23;;;;;;;5.15;82.05;101093.44;5052145;28;20059;-66
2022/12/06 08:11:31;;;;;;;14.70;7.80;;;;;;;5.15;81.87;101093.44;5048369;28;20045;-66
2022/12/06 08:13:57;;;;;;;12.02;7.07;;;;;;;5.01;81.92;101094.66;5044104;28;20240;-66
2022/12/06 08:16:25;;;;;;;13.55;7.38;;;;;;;5.26;81.49;101093.19;5048030;28;20052;-66
2022/12/06 08:18:52;;;;;;;11.60;7.22;;;;;;;5.25;81.45;101097.53;5048710;28;20044;-66
2022/12/06 08:21:18;;;;;;;13.63;7.13;;;;;;;5.11;81.97;101093.56;5045342;28;20071;-66
2022/12/06 08:23:45;;;;;;;14.50;7.13;;;;;;;5.31;81.32;101100.00;5048269;28;20507;-66
2022/12/06 08:26:14;;;;;;;16.70;7.50;;;;;;;5.51;80.41;101098.63;5048116;28;20403;-66
2022/12/06 08:28:42;;;;;;;13.25;7.60;;;;;;;5.45;80.84;101098.78;5057600;28;20052;-66
2022/12/06 08:31:11;;;;;;;15.38;7.25;;;;;;;5.50;80.68;101096.94;5074746;28;20059;-66
2022/12/06 08:33:39;;;;;;;12.68;7.13;;;;;;;5.48;80.48;101096.97;5057939;28;20036;-66
2022/12/06 08:36:08;;;;;;;12.85;6.80;;;;;;;5.70;79.15;101103.34;5053761;28;20045;-66
2022/12/06 08:38:35;;;;;;;13.05;6.78;;;;;;;5.47;80.40;101103.06;5047655;28;20040;-66
2022/12/06 08:41:01;;;;;;;14.43;7.57;;;;;;;5.42;80.78;101110.13;5041558;28;20044;-67
2022/12/06 08:43:27;;;;;;;14.50;7.38;;;;;;;5.50;80.58;101103.00;5051558;28;20503;-66
2022/12/06 08:45:54;;;;;;;11.07;7.00;;;;;;;5.47;81.26;101107.44;5051768;28;20492;-66
2022/12/06 08:48:21;;;;;;;12.10;6.72;;;;;;;5.29;81.25;101103.50;5041286;28;20435;-66
2022/12/06 08:50:48;;;;;;;12.13;7.13;;;;;;;5.16;81.72;101108.16;5051763;28;20044;-66
2022/12/06 08:53:15;;;;;;;13.98;7.45;;;;;;;5.23;82.03;101103.66;5050702;28;20053;-67
2022/12/06 08:55:41;;;;;;;13.60;7.30;;;;;;;4.63;84.66;101114.56;5040774;28;20067;-66
2022/12/06 08:58:08;;;;;;;10.65;6.50;;;;;;;4.95;83.23;101103.47;5053040;28;20041;-66
2022/12/06 09:00:34;;;;;;;10.25;6.43;;;;;;;4.99;83.46;101114.66;5071576;28;20052;-66
2022/12/06 09:03:01;;;;;;;12.25;6.45;;;;;;;4.82;84.12;101108.09;5043197;28;20052;-66
2022/12/06 09:05:28;;;;;;;16.42;6.80;;;;;;;4.78;84.17;101100.38;5073912;28;20055;-66
2022/12/06 09:07:56;;;;;;;14.70;6.13;;;;;;;5.02;84.07;101109.38;5060499;28;20044;-65
2022/12/06 09:10:22;;;;;;;13.88;5.93;;;;;;;5.23;83.10;101109.72;5041123;28;20041;-66
2022/12/06 09:12:49;;;;;;;9.00;5.85;;;;;;;5.04;83.98;101115.38;5051392;28;20229;-66
2022/12/06 09:15:15;;;;;;;11.98;6.10;;;;;;;5.31;83.10;101114.75;5050400;28;20082;-66
2022/12/06 09:17:42;;;;;;;10.52;5.93;;;;;;;5.44;82.87;101108.34;5043110;28;20048;-66
2022/12/06 09:20:09;;;;;;;12.15;6.35;;;;;;;5.34;82.47;101104.25;5050560;28;20052;-65
2022/12/06 09:22:36;;;;;;;10.93;6.05;;;;;;;5.39;82.62;101102.41;5050072;28;20040;-65
2022/12/06 09:25:04;;;;;;;9.15;5.68;;;;;;;5.20;83.32;101112.41;5047830;28;20106;-65
2022/12/06 09:27:31;;;;;;;9.82;5.68;;;;;;;5.07;84.28;101107.50;5052109;28;20049;-65
2022/12/06 09:29:58;;;;;;;9.48;5.47;;;;;;;5.17;83.66;101109.88;5074734;28;20105;-65
2022/12/06 09:32:25;;;;;;;9.63;5.50;;;;;;;5.32;83.33;101106.88;5045457;28;20362;-64
2022/12/06 09:34:51;;;;;;;9.32;5.63;;;;;;;5.05;83.63;101110.16;5051598;28;20400;-65
2022/12/06 09:37:18;;;;;;;9.38;5.90;;;;;;;5.36;83.41;101110.28;5051245;28;20127;-65
2022/12/06 09:39:48;;;;;;;11.52;5.82;;;;;;;5.17;84.49;101112.47;5064315;27;20040;-64
2022/12/06 09:42:35;;;;;;;9.32;6.00;;;;;;;4.88;85.32;101113.13;5065661;28;20052;-64
2022/12/06 09:45:18;;;;;;;9.20;5.80;;;;;;;4.68;86.01;101111.88;5040149;28;20404;-64
2022/12/06 09:48:11;;;;;;;10.43;5.80;;;;;;;4.58;86.49;101118.16;5036133;28;20040;-64
2022/12/06 09:50:45;;;;;;;9.77;6.18;;;;;;;5.00;85.52;101106.81;5049123;28;20067;-64
2022/12/06 09:53:21;;;;;;;11.10;6.15;;;;;;;5.24;84.07;101105.38;5049779;28;20044;-64
2022/12/06 09:56:00;;;;;;;10.45;5.30;;;;;;;5.25;83.84;101107.06;5039726;28;20044;-64
2022/12/06 09:58:40;;;;;;;8.23;5.35;;;;;;;5.19;83.88;101102.03;5057851;28;20044;-64
2022/12/06 10:01:17;;;;;;;10.80;5.43;;;;;;;5.29;83.81;101099.16;5061886;28;20051;-65
2022/12/06 10:04:13;;;;;;;11.45;5.70;;;;;;;5.07;84.26;101091.91;5050774;28;20368;-65
2022/12/06 10:06:49;;;;;;;11.43;5.97;;;;;;;5.12;84.13;101090.06;5010609;28;20045;-65
2022/12/06 10:09:33;;;;;;;10.63;5.90;;;;;;;4.86;84.71;101098.47;5001432;28;20049;-65
2022/12/06 10:12:14;;;;;;;8.68;5.32;;;;;;;5.02;84.10;101093.78;5010849;28;20050;-66
2022/12/06 10:15:00;;;;;;;11.98;5.78;;;;;;;5.15;84.01;101097.78;5020412;28;20508;-65
2022/12/06 10:17:39;;;;;;;9.90;5.78;;;;;;;5.24;83.42;101089.78;5029806;28;20397;-65
2022/12/06 10:20:14;;;;;;;8.30;5.05;;;;;;;4.86;84.35;101090.69;5029930;28;20045;-65
2022/12/06 10:22:55;;;;;;;13.77;6.50;;;;;;;4.77;85.30;101089.13;5029974;28;20045;-65
2022/12/06 10:25:25;;;;;;;8.20;4.90;;;;;;;5.06;84.52;101091.09;5030617;28;20401;-66
2022/12/06 10:28:05;;;;;;;11.43;5.65;;;;;;;5.31;83.32;101080.94;5034131;28;20047;-66
2022/12/06 10:30:38;;;;;;;9.57;5.93;;;;;;;5.30;83.64;101079.22;5040975;28;20062;-65
2022/12/06 10:33:12;;;;;;;9.35;5.07;;;;;;;5.27;82.96;101084.50;5050424;28;20052;-65
2022/12/06 10:35:41;;;;;;;15.13;5.57;;;;;;;5.32;82.71;101093.06;5040140;28;20053;-65
2022/12/06 10:38:20;;;;;;;10.80;5.40;;;;;;;5.11;83.36;101088.34;5044008;28;20445;-65
2022/12/06 10:40:52;;;;;;;8.63;5.43;;;;;;;4.89;83.88;101082.81;5019724;28;20128;-66
2022/12/06 10:43:23;;;;;;;9.93;5.63;;;;;;;4.87;84.51;101085.47;5030735;28;20049;-65
2022/12/06 10:48:57;;;;;;;11.35;6.10;;;;;;;4.93;84.02;101079.25;5049036;28;20043;-65
2022/12/06 10:51:31;;;;;;;10.05;5.15;;;;;;;5.19;83.05;101074.28;5038507;28;20488;-65
2022/12/06 10:54:02;;;;;;;7.57;4.93;;;;;;;5.25;83.00;101081.06;5049157;28;20053;-65
2022/12/06 10:56:34;;;;;;;8.15;4.78;;;;;;;5.34;83.21;101071.31;5039358;28;20040;-65
2022/12/06 10:59:20;;;;;;;11.63;5.70;;;;;;;5.36;83.25;101079.06;5048696;28;20431;-65
2022/12/06 11:01:49;;;;;;;8.18;5.18;;;;;;;5.23;83.81;101072.47;5038692;28;20047;-65
2022/12/06 11:04:24;;;;;;;10.40;5.07;;;;;;;4.60;85.43;101064.44;5048550;28;20051;-65
2022/12/06 11:06:55;;;;;;;10.05;5.03;;;;;;;4.89;85.50;101070.69;5049590;28;20041;-65
2022/12/06 11:09:32;;;;;;;7.38;4.88;;;;;;;5.03;84.69;101064.28;5048771;28;20053;-66
2022/12/06 11:11:58;;;;;;;7.35;4.75;;;;;;;5.21;83.57;101071.66;5048588;28;20574;-65
2022/12/06 11:14:30;;;;;;;9.15;5.10;;;;;;;4.67;85.99;101061.66;5038873;28;20044;-65
2022/12/06 11:17:02;;;;;;;9.85;5.13;;;;;;;4.95;85.31;101066.25;5048522;28;20049;-65
2022/12/06 11:19:34;;;;;;;9.50;5.18;;;;;;;4.87;85.98;101062.06;5049038;28;20043;-65
2022/12/06 11:22:10;;;;;;;7.63;5.00;;;;;;;4.72;85.59;101059.81;5049024;28;20050;-65
2022/12/06 11:24:44;;;;;;;13.43;5.25;;;;;;;4.61;85.92;101061.81;5048448;28;20036;-65
2022/12/06 11:27:14;;;;;;;9.15;5.13;;;;;;;4.84;85.97;101059.53;5043645;28;20307;-65
2022/12/06 11:29:41;;;;;;;9.23;5.20;;;;;;;4.85;85.68;101057.78;5047583;28;20404;-65
2022/12/06 11:32:13;;;;;;;9.77;5.10;;;;;;;4.87;85.71;101058.63;5039831;28;20048;-65
2022/12/06 11:34:44;;;;;;;10.38;5.50;;;;;;;4.62;86.53;101060.06;5049455;28;20056;-65
2022/12/06 11:37:15;;;;;;;11.02;5.28;;;;;;;4.47;86.85;101045.69;5048910;28;20298;-65
2022/12/06 11:39:42;;;;;;;11.52;4.82;;;;;;;4.73;86.76;101045.09;5038677;28;20048;-65
2022/12/06 11:42:11;;;;;;;10.68;6.03;;;;;;;4.85;86.89;101045.66;5048843;28;20051;-65
2022/12/06 11:44:41;;;;;;;10.77;5.55;;;;;;;4.73;87.18;101048.53;5045092;28;20044;-65
2022/12/06 11:47:15;;;;;;;12.27;6.32;;;;;;;5.07;86.44;101035.59;5039700;28;20052;-65
2022/12/06 11:49:44;;;;;;;12.27;5.78;;;;;;;4.88;87.35;101039.53;5047810;28;20033;-65
2022/12/06 11:52:14;;;;;;;10.93;5.75;;;;;;;4.92;86.59;101035.97;5038239;28;20048;-65
2022/12/06 11:54:44;;;;;;;10.95;5.10;;;;;;;4.76;87.94;101038.09;5047924;28;20385;-63
2022/12/06 11:57:19;;;;;;;8.15;4.68;;;;;;;5.13;87.43;101026.81;5048551;28;20040;-64
2022/12/06 12:00:12;;;;;;;8.85;4.90;;;;;;;5.14;86.91;101036.28;5058999;28;20045;-64